Terminal Aerodrome Forecast
Issued by NWS

Home | Current Version | Previous Version | Text Only | Print | Product List | Glossary On
Versions: 1 2 3 4 5 6 7 8 9 10 11 12 13 14 15 16
000
FTUS42 KFFC 021742
TAFFTY
TAF
KFTY 021742Z 0218/0318 07007KT P6SM FEW040
     FM022000 04004KT P6SM SCT050
     FM030100 00000KT P6SM FEW250
     FM031400 34003KT P6SM SKC
     FM031700 32005KT P6SM FEW040=

USA.gov is the U.S. government's official web portal to all federal, state and local government web resources and services.